createdAt,value
2024-02-19T00:01:55.743Z,92.50
2024-02-19T00:04:23.090Z,91.90
2024-02-19T00:06:50.620Z,91.62
2024-02-19T00:09:18.591Z,92.01
2024-02-19T00:11:46.022Z,91.81
2024-02-19T00:14:13.728Z,91.00
2024-02-19T00:16:43.720Z,91.43
2024-02-19T00:19:11.760Z,90.99
2024-02-19T00:21:39.147Z,91.20
2024-02-19T00:24:06.703Z,90.96
2024-02-19T00:26:34.722Z,90.89
2024-02-19T00:29:01.912Z,90.63
2024-02-19T00:31:29.495Z,90.30
2024-02-19T00:33:56.796Z,90.51
2024-02-19T00:36:24.160Z,90.58
2024-02-19T00:38:51.427Z,90.64
2024-02-19T00:41:20.755Z,89.98
2024-02-19T00:43:48.067Z,90.08
2024-02-19T00:46:15.381Z,89.83
2024-02-19T00:48:42.699Z,89.80
2024-02-19T00:51:09.934Z,89.37
2024-02-19T00:53:40.104Z,89.56
2024-02-19T00:56:07.467Z,89.54
2024-02-19T00:58:34.577Z,88.58
2024-02-19T01:01:01.961Z,88.26
2024-02-19T01:03:29.241Z,88.49
2024-02-19T01:05:56.487Z,87.99
2024-02-19T01:08:24.027Z,87.34
2024-02-19T01:10:51.189Z,86.82
2024-02-19T01:13:18.512Z,86.55
2024-02-19T01:15:45.694Z,86.62
2024-02-19T01:18:13.119Z,85.79
2024-02-19T01:20:40.456Z,86.38
2024-02-19T01:23:07.594Z,86.22
2024-02-19T01:25:35.325Z,85.83
2024-02-19T01:28:03.060Z,86.25
2024-02-19T01:30:30.198Z,86.37
2024-02-19T01:32:57.708Z,86.62
2024-02-19T01:35:24.924Z,87.76
2024-02-19T01:37:53.782Z,88.59
2024-02-19T01:40:21.006Z,89.47
2024-02-19T01:42:48.316Z,89.95
2024-02-19T01:45:27.224Z,90.11
2024-02-19T01:48:01.970Z,90.14
2024-02-19T01:50:31.971Z,90.06
2024-02-19T01:53:00.518Z,90.66
2024-02-19T01:55:28.102Z,90.93
2024-02-19T01:57:56.057Z,91.28
2024-02-19T02:00:23.583Z,92.26
2024-02-19T02:02:51.146Z,92.63
2024-02-19T02:05:18.717Z,92.90
2024-02-19T02:07:46.177Z,93.22
2024-02-19T02:10:13.767Z,93.33
2024-02-19T02:12:41.168Z,93.11
2024-02-19T02:15:08.639Z,93.95
2024-02-19T02:17:35.937Z,93.95
2024-02-19T02:20:05.440Z,93.74
2024-02-19T02:22:32.826Z,93.57
2024-02-19T02:25:04.437Z,94.37
2024-02-19T02:27:31.701Z,94.02
2024-02-19T02:29:58.970Z,93.54
2024-02-19T02:32:26.195Z,93.12
2024-02-19T02:34:53.703Z,93.71
2024-02-19T02:37:21.916Z,93.99
2024-02-19T02:39:49.107Z,94.86
2024-02-19T02:42:16.676Z,95.28
2024-02-19T02:44:44.060Z,95.33
2024-02-19T02:47:11.257Z,95.26
2024-02-19T02:49:38.474Z,94.77
2024-02-19T02:52:05.938Z,94.83
2024-02-19T02:54:34.287Z,94.93
2024-02-19T02:57:01.948Z,95.05
2024-02-19T02:59:29.244Z,95.59
2024-02-19T03:01:56.536Z,96.43
2024-02-19T03:04:23.871Z,96.42
2024-02-19T03:06:51.526Z,96.48
2024-02-19T03:09:19.112Z,96.83
2024-02-19T03:11:46.430Z,97.14
2024-02-19T03:14:15.291Z,97.59
2024-02-19T03:16:42.754Z,97.75
2024-02-19T03:19:11.167Z,98.08
2024-02-19T03:21:38.772Z,97.94
2024-02-19T03:24:06.550Z,98.63
2024-02-19T03:26:40.579Z,98.99
2024-02-19T03:29:14.120Z,99.02
2024-02-19T03:31:43.044Z,99.78
2024-02-19T03:34:11.083Z,99.96
2024-02-19T03:36:38.742Z,100.00
2024-02-19T03:39:06.381Z,100.00
2024-02-19T03:41:34.435Z,100.00
2024-02-19T03:44:01.888Z,100.00
2024-02-19T03:46:29.168Z,100.00
2024-02-19T03:48:56.865Z,100.00
2024-02-19T03:51:25.142Z,100.00
2024-02-19T03:53:52.539Z,100.00
2024-02-19T03:56:19.967Z,100.00
2024-02-19T03:58:47.371Z,100.00
2024-02-19T04:01:15.064Z,100.00
2024-02-19T04:03:42.947Z,100.00
2024-02-19T04:06:10.221Z,99.72
2024-02-19T04:08:37.908Z,99.44
2024-02-19T04:11:05.445Z,99.77
2024-02-19T04:13:32.688Z,99.81
2024-02-19T04:16:00.138Z,99.48
2024-02-19T04:18:27.669Z,99.14
2024-02-19T04:20:55.092Z,99.23
2024-02-19T04:23:22.475Z,98.97
2024-02-19T04:25:49.654Z,98.52
2024-02-19T04:28:16.929Z,98.33
2024-02-19T04:30:44.144Z,99.66
2024-02-19T04:33:11.528Z,99.17
2024-02-19T04:35:38.906Z,99.63
2024-02-19T04:38:06.244Z,100.00
2024-02-19T04:40:33.444Z,100.00
2024-02-19T04:43:00.719Z,100.00
2024-02-19T04:45:27.829Z,100.00
2024-02-19T04:47:54.993Z,100.00
2024-02-19T04:50:22.143Z,100.00
2024-02-19T04:52:49.276Z,100.00
2024-02-19T04:55:16.561Z,100.00
2024-02-19T04:57:44.120Z,100.00
2024-02-19T05:00:11.894Z,100.00
2024-02-19T05:02:39.107Z,100.00
2024-02-19T05:05:06.744Z,100.00
2024-02-19T05:07:34.072Z,100.00
2024-02-19T05:10:01.880Z,100.00
2024-02-19T05:12:29.073Z,100.00
2024-02-19T05:14:56.213Z,100.00
2024-02-19T05:17:23.437Z,100.00
2024-02-19T05:19:52.055Z,100.00
2024-02-19T05:22:19.750Z,100.00
2024-02-19T05:24:48.163Z,100.00
2024-02-19T05:27:15.436Z,100.00
2024-02-19T05:29:42.657Z,100.00
2024-02-19T05:32:09.843Z,100.00
2024-02-19T05:34:37.008Z,100.00
2024-02-19T05:37:04.250Z,100.00
2024-02-19T05:39:31.433Z,100.00
2024-02-19T05:41:58.681Z,100.00
2024-02-19T05:44:25.805Z,100.00
2024-02-19T05:46:53.065Z,100.00
2024-02-19T05:49:20.229Z,100.00
2024-02-19T05:51:47.500Z,100.00
2024-02-19T05:54:14.678Z,100.00
2024-02-19T05:56:42.681Z,100.00
2024-02-19T05:59:09.920Z,100.00
2024-02-19T06:01:37.320Z,100.00
2024-02-19T06:04:04.756Z,100.00
2024-02-19T06:06:32.347Z,100.00
2024-02-19T06:08:59.509Z,100.00
2024-02-19T06:11:26.822Z,100.00
2024-02-19T06:13:54.085Z,100.00
2024-02-19T06:16:21.700Z,100.00
2024-02-19T06:18:49.017Z,100.00
2024-02-19T06:21:16.305Z,100.00
2024-02-19T06:23:43.571Z,100.00
2024-02-19T06:26:13.993Z,100.00
2024-02-19T06:28:41.363Z,100.00
2024-02-19T06:31:08.785Z,100.00
2024-02-19T06:33:36.160Z,100.00
2024-02-19T06:36:03.607Z,100.00
2024-02-19T06:38:30.771Z,100.00
2024-02-19T06:40:58.323Z,100.00
2024-02-19T06:43:25.605Z,100.00
2024-02-19T06:45:53.839Z,100.00
2024-02-19T06:48:21.156Z,100.00
2024-02-19T06:50:48.391Z,100.00
2024-02-19T06:53:15.569Z,100.00
2024-02-19T06:55:43.238Z,100.00
2024-02-19T06:58:10.462Z,100.00
2024-02-19T07:00:37.702Z,100.00
2024-02-19T07:03:05.172Z,100.00
2024-02-19T07:05:32.449Z,100.00
2024-02-19T07:07:59.801Z,100.00
2024-02-19T07:10:27.058Z,100.00
2024-02-19T07:12:54.385Z,100.00
2024-02-19T07:15:21.726Z,100.00
2024-02-19T07:17:49.161Z,100.00
2024-02-19T07:20:16.641Z,100.00
2024-02-19T07:22:44.019Z,100.00
2024-02-19T07:25:17.455Z,100.00
2024-02-19T07:27:48.804Z,100.00
2024-02-19T07:30:16.367Z,100.00
2024-02-19T07:32:43.839Z,100.00
2024-02-19T07:35:11.299Z,100.00
2024-02-19T07:37:38.538Z,100.00
2024-02-19T07:40:08.013Z,100.00
2024-02-19T07:42:35.263Z,100.00
2024-02-19T07:45:03.163Z,100.00
2024-02-19T07:47:30.862Z,100.00
2024-02-19T07:49:58.124Z,100.00
2024-02-19T07:52:25.443Z,100.00
2024-02-19T07:54:52.635Z,100.00
2024-02-19T07:57:19.748Z,100.00
2024-02-19T07:59:47.139Z,100.00
2024-02-19T08:02:14.499Z,100.00
2024-02-19T08:04:41.978Z,100.00
2024-02-19T08:07:09.199Z,100.00
2024-02-19T08:09:36.395Z,100.00
2024-02-19T08:12:04.395Z,100.00
2024-02-19T08:14:31.547Z,100.00
2024-02-19T08:16:58.642Z,100.00
2024-02-19T08:19:25.897Z,100.00
2024-02-19T08:21:53.150Z,99.15
2024-02-19T08:24:20.421Z,99.85
2024-02-19T08:26:47.528Z,100.00
2024-02-19T08:29:14.600Z,99.18
2024-02-19T08:31:41.793Z,98.65
2024-02-19T08:34:09.551Z,99.50
2024-02-19T08:36:38.437Z,100.00
2024-02-19T08:39:05.778Z,99.79
2024-02-19T08:41:32.993Z,99.20
2024-02-19T08:44:00.186Z,98.15
2024-02-19T08:46:27.369Z,97.42
2024-02-19T08:48:55.387Z,96.07
2024-02-19T08:51:25.130Z,95.58
2024-02-19T08:53:56.897Z,95.30
2024-02-19T08:56:27.090Z,96.54
2024-02-19T08:58:54.266Z,96.63
2024-02-19T09:01:21.638Z,96.69
2024-02-19T09:03:49.318Z,97.37
2024-02-19T09:06:17.582Z,96.28
2024-02-19T09:08:44.854Z,96.98
2024-02-19T09:11:12.220Z,97.38
2024-02-19T09:13:39.578Z,96.32
2024-02-19T09:16:07.239Z,97.24
2024-02-19T09:18:35.208Z,97.71
2024-02-19T09:21:02.566Z,98.69
2024-02-19T09:23:31.453Z,98.40
2024-02-19T09:25:58.910Z,99.00
2024-02-19T09:28:26.595Z,97.77
2024-02-19T09:30:54.566Z,99.17
2024-02-19T09:33:22.056Z,98.75
2024-02-19T09:35:49.303Z,99.03
2024-02-19T09:38:16.919Z,98.80
2024-02-19T09:40:50.733Z,99.92
2024-02-19T09:43:18.894Z,100.00
2024-02-19T09:45:46.221Z,100.00
2024-02-19T09:48:13.527Z,100.00
2024-02-19T09:50:45.089Z,100.00
2024-02-19T09:53:12.872Z,100.00
2024-02-19T09:55:40.339Z,100.00
2024-02-19T09:58:08.233Z,100.00
2024-02-19T10:00:35.599Z,100.00
2024-02-19T10:03:03.253Z,100.00
2024-02-19T10:05:30.626Z,100.00
2024-02-19T10:08:02.726Z,99.32
2024-02-19T10:10:30.051Z,99.84
2024-02-19T10:12:58.806Z,99.96
2024-02-19T10:15:26.276Z,99.83
2024-02-19T10:17:53.960Z,98.04
2024-02-19T10:20:21.268Z,97.23
2024-02-19T10:22:48.485Z,96.27
2024-02-19T10:25:17.672Z,96.13
2024-02-19T10:27:46.264Z,97.08
2024-02-19T10:30:14.620Z,96.33
2024-02-19T10:32:47.291Z,95.44
2024-02-19T10:35:14.789Z,94.85
2024-02-19T10:37:41.986Z,95.50
2024-02-19T10:40:10.165Z,95.95
2024-02-19T10:42:37.503Z,95.42
2024-02-19T10:45:05.212Z,94.86
2024-02-19T10:47:32.573Z,94.46
2024-02-19T10:50:00.805Z,94.68
2024-02-19T10:52:28.693Z,94.21
2024-02-19T10:55:05.696Z,94.30
2024-02-19T10:57:51.021Z,94.57
2024-02-19T11:00:19.498Z,94.45
2024-02-19T11:02:48.354Z,94.94
2024-02-19T11:05:15.499Z,94.97
2024-02-19T11:07:42.859Z,94.59
2024-02-19T11:10:10.334Z,93.43
2024-02-19T11:12:38.395Z,95.28
2024-02-19T11:15:15.343Z,95.49
2024-02-19T11:17:44.896Z,96.70
2024-02-19T11:20:12.156Z,96.59
2024-02-19T11:22:41.146Z,96.26
2024-02-19T11:25:09.106Z,95.76
2024-02-19T11:27:36.239Z,93.96
2024-02-19T11:30:05.008Z,93.23
2024-02-19T11:32:32.958Z,93.65
2024-02-19T11:35:00.259Z,92.76
2024-02-19T11:37:27.547Z,91.82
2024-02-19T11:39:54.828Z,89.68
2024-02-19T11:42:23.930Z,90.94
2024-02-19T11:44:51.138Z,89.18
2024-02-19T11:47:18.577Z,89.81
2024-02-19T11:49:47.721Z,89.82
2024-02-19T11:52:15.614Z,89.36
2024-02-19T11:54:43.019Z,90.54
2024-02-19T11:57:11.011Z,90.67
2024-02-19T11:59:38.454Z,88.44
2024-02-19T12:02:10.410Z,89.38
2024-02-19T12:04:40.606Z,90.26
2024-02-19T12:07:10.629Z,91.96
2024-02-19T12:09:38.284Z,91.01
2024-02-19T12:12:05.796Z,92.88
2024-02-19T12:14:33.082Z,92.63
2024-02-19T12:17:04.588Z,92.84
2024-02-19T12:19:32.297Z,92.07
2024-02-19T12:21:59.806Z,91.32
2024-02-19T12:24:27.620Z,92.20
2024-02-19T12:26:55.052Z,91.16
2024-02-19T12:29:22.253Z,89.61
2024-02-19T12:31:49.463Z,90.92
2024-02-19T12:34:16.736Z,92.06
2024-02-19T12:36:44.083Z,91.38
2024-02-19T12:39:11.955Z,91.75
2024-02-19T12:41:39.705Z,90.99
2024-02-19T12:44:06.986Z,89.97
2024-02-19T12:46:34.510Z,90.61
2024-02-19T12:49:02.105Z,89.11
2024-02-19T12:51:34.744Z,88.25
2024-02-19T12:54:03.972Z,88.29
2024-02-19T12:56:31.153Z,88.02
2024-02-19T12:58:58.293Z,85.50
2024-02-19T13:01:31.938Z,84.75
2024-02-19T13:04:01.872Z,85.61
2024-02-19T13:06:29.392Z,84.82
2024-02-19T13:08:58.084Z,85.28
2024-02-19T13:11:26.352Z,85.66
2024-02-19T13:13:53.847Z,85.84
2024-02-19T13:16:21.647Z,85.81
2024-02-19T13:18:51.268Z,86.22
2024-02-19T13:21:20.969Z,85.19
2024-02-19T13:23:48.460Z,85.73
2024-02-19T13:26:15.783Z,85.00
2024-02-19T13:28:42.959Z,85.01
2024-02-19T13:31:10.213Z,85.53
2024-02-19T13:33:37.785Z,85.49
2024-02-19T13:36:05.284Z,86.34
2024-02-19T13:38:32.564Z,86.63
2024-02-19T13:41:04.119Z,84.98
2024-02-19T13:43:34.931Z,85.41
2024-02-19T13:46:04.780Z,85.98
2024-02-19T13:48:34.263Z,85.79
2024-02-19T13:51:02.335Z,85.50
2024-02-19T13:53:30.674Z,86.52
2024-02-19T13:55:59.123Z,86.04
2024-02-19T13:58:27.436Z,86.47
2024-02-19T14:00:55.967Z,87.59
2024-02-19T14:03:24.040Z,88.96
2024-02-19T14:05:51.683Z,89.93
2024-02-19T14:08:20.140Z,89.79
2024-02-19T14:10:52.207Z,89.63
2024-02-19T14:13:20.711Z,88.99
2024-02-19T14:15:48.233Z,89.04
2024-02-19T14:18:15.606Z,88.44
2024-02-19T14:20:42.833Z,88.31
2024-02-19T14:23:10.100Z,88.75
2024-02-19T14:25:39.534Z,88.79
2024-02-19T14:28:10.851Z,88.55
2024-02-19T14:30:39.065Z,87.66
2024-02-19T14:33:06.473Z,88.14
2024-02-19T14:35:34.303Z,88.43
2024-02-19T14:38:03.711Z,86.78
2024-02-19T14:40:31.005Z,87.13
2024-02-19T14:42:59.368Z,87.53
2024-02-19T14:45:26.547Z,85.76
2024-02-19T14:47:53.802Z,86.48
2024-02-19T14:50:21.323Z,85.83
2024-02-19T14:52:49.019Z,85.05
2024-02-19T14:55:16.472Z,84.79
2024-02-19T14:57:47.745Z,86.12
2024-02-19T15:00:22.293Z,86.95
2024-02-19T15:02:51.176Z,87.66
2024-02-19T15:05:19.418Z,87.38
2024-02-19T15:07:54.848Z,88.22
2024-02-19T15:10:26.037Z,87.58
2024-02-19T15:12:54.568Z,87.98
2024-02-19T15:15:22.414Z,88.76
2024-02-19T15:17:50.202Z,89.88
2024-02-19T15:20:18.628Z,89.43
2024-02-19T15:22:47.707Z,89.60
2024-02-19T15:25:15.259Z,88.58
2024-02-19T15:27:42.929Z,89.06
2024-02-19T15:30:11.001Z,87.94
2024-02-19T15:32:38.538Z,87.56
2024-02-19T15:35:06.378Z,87.34
2024-02-19T15:37:34.166Z,87.77
2024-02-19T15:40:02.016Z,88.16
2024-02-19T15:42:29.359Z,87.34
2024-02-19T15:44:58.264Z,86.93
2024-02-19T15:47:26.534Z,86.77
2024-02-19T15:49:58.147Z,86.46
2024-02-19T15:52:26.369Z,85.89
2024-02-19T15:54:53.908Z,85.68
2024-02-19T15:57:22.449Z,86.46
2024-02-19T15:59:49.845Z,86.24
2024-02-19T16:02:17.023Z,84.68
2024-02-19T16:04:44.948Z,84.82
2024-02-19T16:07:12.591Z,85.18
2024-02-19T16:09:39.912Z,85.37
2024-02-19T16:12:08.104Z,85.31
2024-02-19T16:14:39.906Z,85.27
2024-02-19T16:17:07.179Z,84.75
2024-02-19T16:19:34.494Z,84.98
2024-02-19T16:22:01.974Z,83.52
2024-02-19T16:24:34.710Z,84.02
2024-02-19T16:27:04.794Z,83.51
2024-02-19T16:29:32.104Z,83.21
2024-02-19T16:31:59.334Z,83.82
2024-02-19T16:34:26.742Z,83.40
2024-02-19T16:36:54.440Z,84.08
2024-02-19T16:39:21.698Z,84.11
2024-02-19T16:41:48.935Z,83.07
2024-02-19T16:44:16.665Z,83.84
2024-02-19T16:46:43.774Z,83.33
2024-02-19T16:49:11.036Z,83.77
2024-02-19T16:51:43.451Z,83.88
2024-02-19T16:54:10.635Z,83.80
2024-02-19T16:56:38.339Z,84.23
2024-02-19T16:59:05.976Z,84.45
2024-02-19T17:01:33.402Z,85.70
2024-02-19T17:04:01.868Z,85.69
2024-02-19T17:06:29.567Z,86.93
2024-02-19T17:08:57.437Z,86.93
2024-02-19T17:11:24.843Z,87.87
2024-02-19T17:13:52.140Z,87.80
2024-02-19T17:16:19.796Z,88.80
2024-02-19T17:18:47.004Z,88.98
2024-02-19T17:21:14.209Z,89.25
2024-02-19T17:23:44.255Z,90.01
2024-02-19T17:26:11.505Z,89.78
2024-02-19T17:28:38.703Z,89.27
2024-02-19T17:31:07.592Z,89.29
2024-02-19T17:33:34.875Z,88.92
2024-02-19T17:36:01.988Z,88.79
2024-02-19T17:38:29.477Z,88.69
2024-02-19T17:40:59.461Z,89.00
2024-02-19T17:43:26.815Z,89.04
2024-02-19T17:45:54.001Z,89.24
2024-02-19T17:48:22.315Z,88.95
2024-02-19T17:50:51.772Z,89.61
2024-02-19T17:53:19.017Z,89.62
2024-02-19T17:55:46.974Z,89.64
2024-02-19T17:58:14.257Z,89.29
2024-02-19T18:00:43.108Z,89.76
2024-02-19T18:03:10.486Z,89.66
2024-02-19T18:05:37.968Z,89.74
2024-02-19T18:08:05.302Z,90.01
2024-02-19T18:10:33.275Z,90.15
2024-02-19T18:13:00.595Z,89.96
2024-02-19T18:15:27.919Z,90.50
2024-02-19T18:17:57.250Z,90.68
2024-02-19T18:20:25.097Z,90.48
2024-02-19T18:22:52.998Z,89.76
2024-02-19T18:25:20.615Z,90.26
2024-02-19T18:27:47.778Z,88.94
2024-02-19T18:30:15.126Z,89.65
2024-02-19T18:32:42.946Z,89.87
2024-02-19T18:35:10.399Z,89.58
2024-02-19T18:37:37.816Z,89.26
2024-02-19T18:40:09.778Z,89.50
2024-02-19T18:42:37.612Z,89.65
2024-02-19T18:45:05.312Z,88.87
2024-02-19T18:47:32.608Z,89.50
2024-02-19T18:49:59.930Z,89.53
2024-02-19T18:52:27.142Z,89.68
2024-02-19T18:54:54.379Z,89.24
2024-02-19T18:57:21.511Z,89.07
2024-02-19T18:59:50.068Z,88.88
2024-02-19T19:02:17.350Z,89.05
2024-02-19T19:04:45.163Z,89.33
2024-02-19T19:07:13.277Z,88.98
2024-02-19T19:09:41.310Z,88.89
2024-02-19T19:12:09.410Z,88.82
2024-02-19T19:14:38.352Z,89.30
2024-02-19T19:17:06.515Z,89.42
2024-02-19T19:19:34.964Z,89.38
2024-02-19T19:22:04.236Z,89.84
2024-02-19T19:24:31.738Z,90.73
2024-02-19T19:27:02.369Z,90.87
2024-02-19T19:29:30.118Z,91.47
2024-02-19T19:31:57.324Z,92.57
2024-02-19T19:34:24.821Z,92.97
2024-02-19T19:36:52.553Z,93.06
2024-02-19T19:39:20.007Z,93.34
2024-02-19T19:41:47.926Z,93.63
2024-02-19T19:44:18.656Z,93.39
2024-02-19T19:46:46.210Z,93.65
2024-02-19T19:49:18.162Z,93.31
2024-02-19T19:51:45.642Z,94.20
2024-02-19T19:54:12.865Z,94.22
2024-02-19T19:56:41.692Z,93.91
2024-02-19T19:59:09.407Z,93.66
2024-02-19T20:01:37.422Z,93.08
2024-02-19T20:04:06.313Z,93.51
2024-02-19T20:06:34.313Z,93.56
2024-02-19T20:09:02.674Z,93.61
2024-02-19T20:11:29.832Z,93.41
2024-02-19T20:13:57.055Z,93.34
2024-02-19T20:16:24.264Z,93.59
2024-02-19T20:18:51.602Z,93.38
2024-02-19T20:21:18.945Z,93.82
2024-02-19T20:23:46.189Z,93.19
2024-02-19T20:26:13.416Z,92.75
2024-02-19T20:28:40.536Z,93.08
2024-02-19T20:31:07.758Z,93.76
2024-02-19T20:33:34.974Z,94.06
2024-02-19T20:36:04.464Z,94.55
2024-02-19T20:38:31.578Z,94.46
2024-02-19T20:40:58.927Z,94.38
2024-02-19T20:43:26.156Z,94.54
2024-02-19T20:45:54.228Z,94.68
2024-02-19T20:48:24.362Z,95.12
2024-02-19T20:50:51.651Z,95.50
2024-02-19T20:53:19.284Z,95.79
2024-02-19T20:55:46.726Z,96.73
2024-02-19T20:58:15.866Z,97.28
2024-02-19T21:00:43.192Z,97.40
2024-02-19T21:03:10.349Z,97.92
2024-02-19T21:05:37.616Z,98.18
2024-02-19T21:08:06.382Z,98.18
2024-02-19T21:10:34.687Z,97.83
2024-02-19T21:13:03.199Z,97.57
2024-02-19T21:15:30.602Z,97.68
2024-02-19T21:17:57.974Z,97.53
2024-02-19T21:20:25.606Z,97.48
2024-02-19T21:22:52.917Z,97.35
2024-02-19T21:25:20.327Z,96.76
2024-02-19T21:27:47.493Z,97.20
2024-02-19T21:30:14.630Z,97.51
2024-02-19T21:32:42.132Z,97.13
2024-02-19T21:35:11.711Z,96.52
2024-02-19T21:37:40.598Z,96.52
2024-02-19T21:40:10.405Z,96.41
2024-02-19T21:42:39.089Z,96.24
2024-02-19T21:45:10.289Z,96.59
2024-02-19T21:47:37.923Z,96.23
2024-02-19T21:50:07.990Z,96.22
2024-02-19T21:52:35.862Z,96.27
2024-02-19T21:55:07.696Z,96.29
2024-02-19T21:57:38.718Z,96.30
2024-02-19T22:00:06.953Z,96.01
2024-02-19T22:02:34.209Z,95.85
2024-02-19T22:05:01.658Z,95.93
2024-02-19T22:07:32.353Z,95.48
2024-02-19T22:10:02.694Z,96.47
2024-02-19T22:12:30.586Z,95.98
2024-02-19T22:14:58.553Z,96.42
2024-02-19T22:17:26.970Z,96.09
2024-02-19T22:19:54.197Z,96.20
2024-02-19T22:22:21.740Z,96.21
2024-02-19T22:24:53.874Z,95.37
2024-02-19T22:27:21.489Z,95.39
2024-02-19T22:29:48.601Z,95.27
2024-02-19T22:32:15.720Z,95.18
2024-02-19T22:34:46.500Z,94.97
2024-02-19T22:37:14.938Z,94.41
2024-02-19T22:39:45.998Z,94.42
2024-02-19T22:42:13.530Z,95.04
2024-02-19T22:44:44.132Z,95.23
2024-02-19T22:47:11.305Z,93.68
2024-02-19T22:49:39.500Z,93.84
2024-02-19T22:52:07.486Z,94.14
2024-02-19T22:54:35.172Z,94.31
2024-02-19T22:57:02.502Z,94.05
2024-02-19T22:59:29.729Z,93.97
2024-02-19T23:01:57.006Z,93.63
2024-02-19T23:04:24.357Z,93.57
2024-02-19T23:06:51.547Z,93.93
2024-02-19T23:09:18.773Z,94.04
2024-02-19T23:11:46.105Z,93.66
2024-02-19T23:14:13.246Z,93.84
2024-02-19T23:16:40.602Z,93.57
2024-02-19T23:19:08.295Z,93.71
2024-02-19T23:21:36.646Z,93.80
2024-02-19T23:24:04.237Z,94.12
2024-02-19T23:26:31.389Z,93.40
2024-02-19T23:28:58.491Z,94.02
2024-02-19T23:31:25.717Z,93.75
2024-02-19T23:33:55.779Z,93.68
2024-02-19T23:36:23.680Z,94.18
2024-02-19T23:38:50.854Z,93.70
2024-02-19T23:41:18.094Z,93.43
2024-02-19T23:43:47.532Z,93.28
2024-02-19T23:46:16.614Z,93.57
2024-02-19T23:48:44.145Z,93.71
2024-02-19T23:51:11.383Z,93.68
2024-02-19T23:53:38.620Z,93.25
2024-02-19T23:56:06.221Z,93.12
2024-02-19T23:58:33.572Z,93.12
